sensor_id;sensor_type;location;lat;lon;timestamp;pressure;altitude;pressure_sealevel;temperature
74536;BMP180;63013;51.104;-115.370;2022-12-15T00:02:39;87677.80;;;23.10
74536;BMP180;63013;51.104;-115.370;2022-12-15T00:05:24;87683.60;;;23.10
74536;BMP180;63013;51.104;-115.370;2022-12-15T00:08:10;87685.40;;;23.10
74536;BMP180;63013;51.104;-115.370;2022-12-15T00:10:55;87694.00;;;23.10
74536;BMP180;63013;51.104;-115.370;2022-12-15T00:13:41;87697.40;;;23.10
74536;BMP180;63013;51.104;-115.370;2022-12-15T00:16:27;87699.40;;;23.10
74536;BMP180;63013;51.104;-115.370;2022-12-15T00:19:12;87703.00;;;23.06
74536;BMP180;63013;51.104;-115.370;2022-12-15T00:21:58;87695.60;;;23.06
74536;BMP180;63013;51.104;-115.370;2022-12-15T00:24:43;87700.60;;;23.10
74536;BMP180;63013;51.104;-115.370;2022-12-15T00:27:29;87707.40;;;23.10
74536;BMP180;63013;51.104;-115.370;2022-12-15T00:30:14;87713.60;;;23.10
74536;BMP180;63013;51.104;-115.370;2022-12-15T00:33:09;87714.80;;;23.18
74536;BMP180;63013;51.104;-115.370;2022-12-15T00:35:57;87717.00;;;23.20
74536;BMP180;63013;51.104;-115.370;2022-12-15T00:38:43;87709.80;;;23.20
74536;BMP180;63013;51.104;-115.370;2022-12-15T00:41:16;87706.60;;;23.20
74536;BMP180;63013;51.104;-115.370;2022-12-15T00:43:44;87702.40;;;23.20
74536;BMP180;63013;51.104;-115.370;2022-12-15T00:46:12;87710.40;;;23.10
74536;BMP180;63013;51.104;-115.370;2022-12-15T00:48:57;87714.20;;;23.10
74536;BMP180;63013;51.104;-115.370;2022-12-15T00:51:25;87708.00;;;23.10
74536;BMP180;63013;51.104;-115.370;2022-12-15T00:54:10;87704.80;;;23.10
74536;BMP180;63013;51.104;-115.370;2022-12-15T00:56:56;87702.00;;;23.10
74536;BMP180;63013;51.104;-115.370;2022-12-15T00:59:41;87698.80;;;23.10
74536;BMP180;63013;51.104;-115.370;2022-12-15T01:02:27;87702.40;;;23.10
74536;BMP180;63013;51.104;-115.370;2022-12-15T01:05:13;87703.60;;;23.10
74536;BMP180;63013;51.104;-115.370;2022-12-15T01:07:59;87701.20;;;23.08
74536;BMP180;63013;51.104;-115.370;2022-12-15T01:10:45;87697.40;;;23.00
74536;BMP180;63013;51.104;-115.370;2022-12-15T01:13:31;87695.40;;;23.00
74536;BMP180;63013;51.104;-115.370;2022-12-15T01:16:16;87696.20;;;23.00
74536;BMP180;63013;51.104;-115.370;2022-12-15T01:19:02;87703.00;;;23.00
74536;BMP180;63013;51.104;-115.370;2022-12-15T01:21:47;87701.60;;;23.00
74536;BMP180;63013;51.104;-115.370;2022-12-15T01:24:15;87703.60;;;23.00
74536;BMP180;63013;51.104;-115.370;2022-12-15T01:26:42;87700.80;;;22.92
74536;BMP180;63013;51.104;-115.370;2022-12-15T01:29:09;87698.00;;;22.92
74536;BMP180;63013;51.104;-115.370;2022-12-15T01:31:36;87693.40;;;22.90
74536;BMP180;63013;51.104;-115.370;2022-12-15T01:34:04;87704.00;;;22.90
74536;BMP180;63013;51.104;-115.370;2022-12-15T01:36:31;87703.20;;;22.90
74536;BMP180;63013;51.104;-115.370;2022-12-15T01:38:58;87704.40;;;22.90
74536;BMP180;63013;51.104;-115.370;2022-12-15T01:41:25;87706.40;;;22.90
74536;BMP180;63013;51.104;-115.370;2022-12-15T01:43:53;87707.20;;;22.88
74536;BMP180;63013;51.104;-115.370;2022-12-15T01:46:22;87715.00;;;22.84
74536;BMP180;63013;51.104;-115.370;2022-12-15T01:49:20;87715.00;;;22.80
74536;BMP180;63013;51.104;-115.370;2022-12-15T01:51:53;87711.80;;;22.80
74536;BMP180;63013;51.104;-115.370;2022-12-15T01:54:45;87711.20;;;22.80
74536;BMP180;63013;51.104;-115.370;2022-12-15T01:57:21;87719.40;;;22.80
74536;BMP180;63013;51.104;-115.370;2022-12-15T01:59:58;87716.00;;;22.72
74536;BMP180;63013;51.104;-115.370;2022-12-15T02:02:29;87716.60;;;22.70
74536;BMP180;63013;51.104;-115.370;2022-12-15T02:04:59;87722.40;;;22.70
74536;BMP180;63013;51.104;-115.370;2022-12-15T02:07:27;87729.80;;;22.70
74536;BMP180;63013;51.104;-115.370;2022-12-15T02:09:58;87738.60;;;22.70
74536;BMP180;63013;51.104;-115.370;2022-12-15T02:12:58;87740.60;;;22.70
74536;BMP180;63013;51.104;-115.370;2022-12-15T02:18:34;87741.40;;;22.60
74536;BMP180;63013;51.104;-115.370;2022-12-15T02:21:17;87735.20;;;22.60
74536;BMP180;63013;51.104;-115.370;2022-12-15T02:24:16;87737.20;;;22.60
74536;BMP180;63013;51.104;-115.370;2022-12-15T02:27:21;87736.60;;;22.54
74536;BMP180;63013;51.104;-115.370;2022-12-15T02:30:19;87734.00;;;22.50
74536;BMP180;63013;51.104;-115.370;2022-12-15T02:33:15;87735.60;;;22.50
74536;BMP180;63013;51.104;-115.370;2022-12-15T02:38:43;87729.80;;;22.40
74536;BMP180;63013;51.104;-115.370;2022-12-15T02:41:44;87727.80;;;22.40
74536;BMP180;63013;51.104;-115.370;2022-12-15T02:44:49;87730.20;;;22.40
74536;BMP180;63013;51.104;-115.370;2022-12-15T02:51:11;87734.60;;;22.30
74536;BMP180;63013;51.104;-115.370;2022-12-15T02:56:44;87739.40;;;22.30
74536;BMP180;63013;51.104;-115.370;2022-12-15T02:59:20;87738.60;;;22.22
74536;BMP180;63013;51.104;-115.370;2022-12-15T03:01:59;87738.60;;;22.20
74536;BMP180;63013;51.104;-115.370;2022-12-15T03:04:29;87738.60;;;22.20
74536;BMP180;63013;51.104;-115.370;2022-12-15T03:07:04;87730.60;;;22.20
74536;BMP180;63013;51.104;-115.370;2022-12-15T03:09:34;87734.00;;;22.20
74536;BMP180;63013;51.104;-115.370;2022-12-15T03:12:01;87732.40;;;22.12
74536;BMP180;63013;51.104;-115.370;2022-12-15T03:14:29;87736.20;;;22.10
74536;BMP180;63013;51.104;-115.370;2022-12-15T03:16:56;87739.40;;;22.10
74536;BMP180;63013;51.104;-115.370;2022-12-15T03:19:23;87744.40;;;22.10
74536;BMP180;63013;51.104;-115.370;2022-12-15T03:21:51;87746.60;;;22.10
74536;BMP180;63013;51.104;-115.370;2022-12-15T03:24:19;87744.80;;;22.02
74536;BMP180;63013;51.104;-115.370;2022-12-15T03:26:46;87749.20;;;22.00
74536;BMP180;63013;51.104;-115.370;2022-12-15T03:29:17;87754.80;;;22.00
74536;BMP180;63013;51.104;-115.370;2022-12-15T03:31:45;87761.80;;;22.00
74536;BMP180;63013;51.104;-115.370;2022-12-15T03:34:12;87761.80;;;22.00
74536;BMP180;63013;51.104;-115.370;2022-12-15T03:36:39;87770.60;;;21.92
74536;BMP180;63013;51.104;-115.370;2022-12-15T03:39:07;87777.00;;;21.90
74536;BMP180;63013;51.104;-115.370;2022-12-15T03:41:34;87776.80;;;21.90
74536;BMP180;63013;51.104;-115.370;2022-12-15T03:44:01;87791.00;;;21.90
74536;BMP180;63013;51.104;-115.370;2022-12-15T03:46:29;87795.60;;;21.90
74536;BMP180;63013;51.104;-115.370;2022-12-15T03:48:56;87802.00;;;21.90
74536;BMP180;63013;51.104;-115.370;2022-12-15T03:51:24;87803.60;;;21.90
74536;BMP180;63013;51.104;-115.370;2022-12-15T03:53:51;87795.80;;;21.90
74536;BMP180;63013;51.104;-115.370;2022-12-15T03:56:19;87800.60;;;21.90
74536;BMP180;63013;51.104;-115.370;2022-12-15T03:58:46;87801.60;;;21.90
74536;BMP180;63013;51.104;-115.370;2022-12-15T04:01:29;87801.00;;;21.80
74536;BMP180;63013;51.104;-115.370;2022-12-15T04:03:57;87797.80;;;21.80
74536;BMP180;63013;51.104;-115.370;2022-12-15T04:06:24;87806.00;;;21.80
74536;BMP180;63013;51.104;-115.370;2022-12-15T04:08:51;87795.60;;;21.80
74536;BMP180;63013;51.104;-115.370;2022-12-15T04:11:19;87799.20;;;21.76
74536;BMP180;63013;51.104;-115.370;2022-12-15T04:13:46;87804.00;;;21.70
74536;BMP180;63013;51.104;-115.370;2022-12-15T04:16:13;87798.40;;;21.70
74536;BMP180;63013;51.104;-115.370;2022-12-15T04:18:41;87797.40;;;21.70
74536;BMP180;63013;51.104;-115.370;2022-12-15T04:21:08;87796.60;;;21.70
74536;BMP180;63013;51.104;-115.370;2022-12-15T04:23:35;87801.80;;;21.62
74536;BMP180;63013;51.104;-115.370;2022-12-15T04:26:02;87803.20;;;21.60
74536;BMP180;63013;51.104;-115.370;2022-12-15T04:28:48;87802.60;;;21.60
74536;BMP180;63013;51.104;-115.370;2022-12-15T04:31:34;87805.40;;;21.60
74536;BMP180;63013;51.104;-115.370;2022-12-15T04:34:22;87807.40;;;21.50
74536;BMP180;63013;51.104;-115.370;2022-12-15T04:37:12;87817.00;;;21.50
74536;BMP180;63013;51.104;-115.370;2022-12-15T04:39:59;87820.80;;;21.50
74536;BMP180;63013;51.104;-115.370;2022-12-15T04:42:46;87821.40;;;21.50
74536;BMP180;63013;51.104;-115.370;2022-12-15T04:45:32;87830.20;;;21.42
74536;BMP180;63013;51.104;-115.370;2022-12-15T04:48:17;87824.00;;;21.40
74536;BMP180;63013;51.104;-115.370;2022-12-15T04:51:03;87825.60;;;21.40
74536;BMP180;63013;51.104;-115.370;2022-12-15T04:53:48;87827.20;;;21.40
74536;BMP180;63013;51.104;-115.370;2022-12-15T04:56:33;87822.40;;;21.36
74536;BMP180;63013;51.104;-115.370;2022-12-15T04:59:19;87814.20;;;21.30
74536;BMP180;63013;51.104;-115.370;2022-12-15T05:02:05;87820.40;;;21.30
74536;BMP180;63013;51.104;-115.370;2022-12-15T05:04:50;87822.20;;;21.30
74536;BMP180;63013;51.104;-115.370;2022-12-15T05:07:36;87820.00;;;21.30
74536;BMP180;63013;51.104;-115.370;2022-12-15T05:10:21;87824.00;;;21.24
74536;BMP180;63013;51.104;-115.370;2022-12-15T05:13:08;87822.60;;;21.20
74536;BMP180;63013;51.104;-115.370;2022-12-15T05:15:53;87821.20;;;21.20
74536;BMP180;63013;51.104;-115.370;2022-12-15T05:18:38;87823.00;;;21.20
74536;BMP180;63013;51.104;-115.370;2022-12-15T05:21:24;87823.40;;;21.10
74536;BMP180;63013;51.104;-115.370;2022-12-15T05:24:09;87821.80;;;21.10
74536;BMP180;63013;51.104;-115.370;2022-12-15T05:26:55;87822.60;;;21.10
74536;BMP180;63013;51.104;-115.370;2022-12-15T05:29:40;87822.60;;;21.10
74536;BMP180;63013;51.104;-115.370;2022-12-15T05:32:26;87819.80;;;21.00
74536;BMP180;63013;51.104;-115.370;2022-12-15T05:34:53;87822.00;;;21.00
74536;BMP180;63013;51.104;-115.370;2022-12-15T05:37:20;87824.00;;;21.00
74536;BMP180;63013;51.104;-115.370;2022-12-15T05:39:48;87825.80;;;21.00
74536;BMP180;63013;51.104;-115.370;2022-12-15T05:42:15;87826.20;;;21.00
74536;BMP180;63013;51.104;-115.370;2022-12-15T05:44:42;87829.80;;;20.92
74536;BMP180;63013;51.104;-115.370;2022-12-15T05:47:11;87827.60;;;20.90
74536;BMP180;63013;51.104;-115.370;2022-12-15T05:49:38;87832.60;;;20.90
74536;BMP180;63013;51.104;-115.370;2022-12-15T05:52:05;87830.20;;;20.90
74536;BMP180;63013;51.104;-115.370;2022-12-15T05:54:33;87830.60;;;20.90
74536;BMP180;63013;51.104;-115.370;2022-12-15T05:57:00;87834.00;;;20.82
74536;BMP180;63013;51.104;-115.370;2022-12-15T05:59:27;87834.40;;;20.80
74536;BMP180;63013;51.104;-115.370;2022-12-15T06:01:54;87834.20;;;20.80
74536;BMP180;63013;51.104;-115.370;2022-12-15T06:04:22;87828.60;;;20.80
74536;BMP180;63013;51.104;-115.370;2022-12-15T06:06:49;87830.20;;;20.80
74536;BMP180;63013;51.104;-115.370;2022-12-15T06:09:16;87827.60;;;20.70
74536;BMP180;63013;51.104;-115.370;2022-12-15T06:11:43;87825.20;;;20.70
74536;BMP180;63013;51.104;-115.370;2022-12-15T06:14:11;87831.00;;;20.70
74536;BMP180;63013;51.104;-115.370;2022-12-15T06:16:38;87826.60;;;20.70
74536;BMP180;63013;51.104;-115.370;2022-12-15T06:19:05;87829.00;;;20.68
74536;BMP180;63013;51.104;-115.370;2022-12-15T06:21:35;87828.40;;;20.60
74536;BMP180;63013;51.104;-115.370;2022-12-15T06:24:04;87832.00;;;20.60
74536;BMP180;63013;51.104;-115.370;2022-12-15T06:26:35;87833.20;;;20.60
74536;BMP180;63013;51.104;-115.370;2022-12-15T06:29:07;87830.60;;;20.60
74536;BMP180;63013;51.104;-115.370;2022-12-15T06:31:35;87826.60;;;20.54
74536;BMP180;63013;51.104;-115.370;2022-12-15T06:34:06;87823.40;;;20.50
74536;BMP180;63013;51.104;-115.370;2022-12-15T06:36:33;87818.60;;;20.50
74536;BMP180;63013;51.104;-115.370;2022-12-15T06:39:04;87822.00;;;20.50
74536;BMP180;63013;51.104;-115.370;2022-12-15T06:41:31;87814.80;;;20.50
74536;BMP180;63013;51.104;-115.370;2022-12-15T06:43:59;87813.00;;;20.44
74536;BMP180;63013;51.104;-115.370;2022-12-15T06:46:29;87810.80;;;20.40
74536;BMP180;63013;51.104;-115.370;2022-12-15T06:48:58;87808.80;;;20.40
74536;BMP180;63013;51.104;-115.370;2022-12-15T06:51:26;87812.40;;;20.40
74536;BMP180;63013;51.104;-115.370;2022-12-15T06:53:53;87809.20;;;20.40
74536;BMP180;63013;51.104;-115.370;2022-12-15T06:56:29;87807.20;;;20.40
74536;BMP180;63013;51.104;-115.370;2022-12-15T06:58:59;87811.60;;;20.32
74536;BMP180;63013;51.104;-115.370;2022-12-15T07:01:27;87815.40;;;20.30
74536;BMP180;63013;51.104;-115.370;2022-12-15T07:03:55;87820.80;;;20.30
74536;BMP180;63013;51.104;-115.370;2022-12-15T07:06:25;87824.20;;;20.30
74536;BMP180;63013;51.104;-115.370;2022-12-15T07:08:53;87826.40;;;20.28
74536;BMP180;63013;51.104;-115.370;2022-12-15T07:11:22;87826.80;;;20.20
74536;BMP180;63013;51.104;-115.370;2022-12-15T07:13:51;87833.00;;;20.20
74536;BMP180;63013;51.104;-115.370;2022-12-15T07:16:20;87839.60;;;20.20
74536;BMP180;63013;51.104;-115.370;2022-12-15T07:18:48;87843.00;;;20.20
74536;BMP180;63013;51.104;-115.370;2022-12-15T07:21:16;87845.60;;;20.20
74536;BMP180;63013;51.104;-115.370;2022-12-15T07:23:43;87850.60;;;20.10
74536;BMP180;63013;51.104;-115.370;2022-12-15T07:26:10;87852.60;;;20.10
74536;BMP180;63013;51.104;-115.370;2022-12-15T07:28:38;87848.20;;;20.10
74536;BMP180;63013;51.104;-115.370;2022-12-15T07:31:08;87847.40;;;20.10
74536;BMP180;63013;51.104;-115.370;2022-12-15T07:33:39;87846.40;;;20.08
74536;BMP180;63013;51.104;-115.370;2022-12-15T07:36:07;87843.60;;;20.00
74536;BMP180;63013;51.104;-115.370;2022-12-15T07:38:34;87845.00;;;20.00
74536;BMP180;63013;51.104;-115.370;2022-12-15T07:41:05;87845.00;;;20.00
74536;BMP180;63013;51.104;-115.370;2022-12-15T07:43:33;87842.60;;;19.98
74536;BMP180;63013;51.104;-115.370;2022-12-15T07:46:00;87843.20;;;19.90
74536;BMP180;63013;51.104;-115.370;2022-12-15T07:48:28;87840.60;;;19.90
74536;BMP180;63013;51.104;-115.370;2022-12-15T07:50:55;87843.60;;;19.90
74536;BMP180;63013;51.104;-115.370;2022-12-15T07:53:27;87841.80;;;19.90
74536;BMP180;63013;51.104;-115.370;2022-12-15T07:55:56;87841.60;;;19.82
74536;BMP180;63013;51.104;-115.370;2022-12-15T07:58:28;87838.00;;;19.80
74536;BMP180;63013;51.104;-115.370;2022-12-15T08:01:05;87838.60;;;19.80
74536;BMP180;63013;51.104;-115.370;2022-12-15T08:03:32;87839.40;;;19.80
74536;BMP180;63013;51.104;-115.370;2022-12-15T08:06:08;87844.20;;;19.80
74536;BMP180;63013;51.104;-115.370;2022-12-15T08:08:38;87843.20;;;19.74
74536;BMP180;63013;51.104;-115.370;2022-12-15T08:11:11;87842.20;;;19.70
74536;BMP180;63013;51.104;-115.370;2022-12-15T08:13:41;87842.80;;;19.70
74536;BMP180;63013;51.104;-115.370;2022-12-15T08:16:08;87841.00;;;19.70
74536;BMP180;63013;51.104;-115.370;2022-12-15T08:18:36;87851.00;;;19.66
74536;BMP180;63013;51.104;-115.370;2022-12-15T08:21:05;87847.20;;;19.60
74536;BMP180;63013;51.104;-115.370;2022-12-15T08:23:35;87847.40;;;19.60
74536;BMP180;63013;51.104;-115.370;2022-12-15T08:26:14;87846.40;;;19.60
74536;BMP180;63013;51.104;-115.370;2022-12-15T08:28:43;87851.40;;;19.60
74536;BMP180;63013;51.104;-115.370;2022-12-15T08:31:14;87855.80;;;19.54
74536;BMP180;63013;51.104;-115.370;2022-12-15T08:33:43;87856.80;;;19.50
74536;BMP180;63013;51.104;-115.370;2022-12-15T08:36:14;87848.20;;;19.50
74536;BMP180;63013;51.104;-115.370;2022-12-15T08:38:43;87846.80;;;19.50
74536;BMP180;63013;51.104;-115.370;2022-12-15T08:41:15;87853.60;;;19.50
74536;BMP180;63013;51.104;-115.370;2022-12-15T08:43:42;87848.80;;;19.44
74536;BMP180;63013;51.104;-115.370;2022-12-15T08:46:10;87847.00;;;19.40
74536;BMP180;63013;51.104;-115.370;2022-12-15T08:48:38;87849.00;;;19.40
74536;BMP180;63013;51.104;-115.370;2022-12-15T08:51:06;87839.20;;;19.40
74536;BMP180;63013;51.104;-115.370;2022-12-15T08:53:34;87840.00;;;19.40
74536;BMP180;63013;51.104;-115.370;2022-12-15T08:56:10;87839.40;;;19.34
74536;BMP180;63013;51.104;-115.370;2022-12-15T08:58:38;87844.00;;;19.30
74536;BMP180;63013;51.104;-115.370;2022-12-15T09:01:11;87846.60;;;19.30
74536;BMP180;63013;51.104;-115.370;2022-12-15T09:03:38;87853.00;;;19.30
74536;BMP180;63013;51.104;-115.370;2022-12-15T09:06:11;87848.60;;;19.30
74536;BMP180;63013;51.104;-115.370;2022-12-15T09:08:39;87853.80;;;19.22
74536;BMP180;63013;51.104;-115.370;2022-12-15T09:11:07;87853.00;;;19.20
74536;BMP180;63013;51.104;-115.370;2022-12-15T09:13:34;87860.20;;;19.20
74536;BMP180;63013;51.104;-115.370;2022-12-15T09:16:06;87862.40;;;19.20
74536;BMP180;63013;51.104;-115.370;2022-12-15T09:18:34;87862.20;;;19.20
74536;BMP180;63013;51.104;-115.370;2022-12-15T09:21:06;87861.60;;;19.14
74536;BMP180;63013;51.104;-115.370;2022-12-15T09:23:34;87859.40;;;19.10
74536;BMP180;63013;51.104;-115.370;2022-12-15T09:26:06;87859.60;;;19.10
74536;BMP180;63013;51.104;-115.370;2022-12-15T09:28:34;87860.60;;;19.10
74536;BMP180;63013;51.104;-115.370;2022-12-15T09:31:06;87859.80;;;19.10
74536;BMP180;63013;51.104;-115.370;2022-12-15T09:33:34;87858.20;;;19.02
74536;BMP180;63013;51.104;-115.370;2022-12-15T09:36:02;87862.60;;;19.00
74536;BMP180;63013;51.104;-115.370;2022-12-15T09:38:32;87857.80;;;19.00
74536;BMP180;63013;51.104;-115.370;2022-12-15T09:44:03;87866.00;;;18.96
74536;BMP180;63013;51.104;-115.370;2022-12-15T09:50:03;87858.60;;;18.90
74536;BMP180;63013;51.104;-115.370;2022-12-15T09:52:49;87855.00;;;18.90
74536;BMP180;63013;51.104;-115.370;2022-12-15T09:55:27;87862.80;;;18.90
74536;BMP180;63013;51.104;-115.370;2022-12-15T09:58:11;87866.00;;;18.82
74536;BMP180;63013;51.104;-115.370;2022-12-15T10:00:55;87871.40;;;18.80
74536;BMP180;63013;51.104;-115.370;2022-12-15T10:06:35;87878.40;;;18.80
74536;BMP180;63013;51.104;-115.370;2022-12-15T10:09:25;87883.20;;;18.72
74536;BMP180;63013;51.104;-115.370;2022-12-15T10:12:02;87884.20;;;18.70
74536;BMP180;63013;51.104;-115.370;2022-12-15T10:14:53;87884.40;;;18.70
74536;BMP180;63013;51.104;-115.370;2022-12-15T10:18:04;87898.20;;;18.70
74536;BMP180;63013;51.104;-115.370;2022-12-15T10:20:32;87905.40;;;18.70
74536;BMP180;63013;51.104;-115.370;2022-12-15T10:23:15;87904.80;;;18.62
74536;BMP180;63013;51.104;-115.370;2022-12-15T10:26:20;87911.20;;;18.60
74536;BMP180;63013;51.104;-115.370;2022-12-15T10:32:03;87920.60;;;18.60
74536;BMP180;63013;51.104;-115.370;2022-12-15T10:34:36;87923.20;;;18.58
74536;BMP180;63013;51.104;-115.370;2022-12-15T10:37:13;87916.40;;;18.54
74536;BMP180;63013;51.104;-115.370;2022-12-15T10:39:45;87913.80;;;18.50
74536;BMP180;63013;51.104;-115.370;2022-12-15T10:42:23;87918.60;;;18.50
74536;BMP180;63013;51.104;-115.370;2022-12-15T10:44:57;87914.20;;;18.50
74536;BMP180;63013;51.104;-115.370;2022-12-15T10:47:29;87916.40;;;18.50
74536;BMP180;63013;51.104;-115.370;2022-12-15T10:50:23;87915.60;;;18.46
74536;BMP180;63013;51.104;-115.370;2022-12-15T10:52:50;87913.80;;;18.40
74536;BMP180;63013;51.104;-115.370;2022-12-15T10:55:47;87919.20;;;18.40
74536;BMP180;63013;51.104;-115.370;2022-12-15T10:58:18;87923.00;;;18.40
74536;BMP180;63013;51.104;-115.370;2022-12-15T11:00:48;87923.60;;;18.40
74536;BMP180;63013;51.104;-115.370;2022-12-15T11:03:36;87925.40;;;18.40
74536;BMP180;63013;51.104;-115.370;2022-12-15T11:06:15;87924.60;;;18.30
74536;BMP180;63013;51.104;-115.370;2022-12-15T11:08:44;87934.00;;;18.30
74536;BMP180;63013;51.104;-115.370;2022-12-15T11:11:35;87930.60;;;18.30
74536;BMP180;63013;51.104;-115.370;2022-12-15T11:14:47;87930.20;;;18.30
74536;BMP180;63013;51.104;-115.370;2022-12-15T11:17:20;87936.80;;;18.22
74536;BMP180;63013;51.104;-115.370;2022-12-15T11:20:22;87940.80;;;18.20
74536;BMP180;63013;51.104;-115.370;2022-12-15T11:23:21;87943.60;;;18.20
74536;BMP180;63013;51.104;-115.370;2022-12-15T11:29:19;87961.80;;;18.18
74536;BMP180;63013;51.104;-115.370;2022-12-15T11:31:52;87966.60;;;18.10
74536;BMP180;63013;51.104;-115.370;2022-12-15T11:34:32;87973.20;;;18.10
74536;BMP180;63013;51.104;-115.370;2022-12-15T11:37:18;87986.80;;;18.10
74536;BMP180;63013;51.104;-115.370;2022-12-15T11:43:08;87985.60;;;18.10
74536;BMP180;63013;51.104;-115.370;2022-12-15T11:54:26;88001.40;;;18.00
74536;BMP180;63013;51.104;-115.370;2022-12-15T12:03:30;87999.40;;;17.90
74536;BMP180;63013;51.104;-115.370;2022-12-15T12:09:32;87992.80;;;17.90
74536;BMP180;63013;51.104;-115.370;2022-12-15T12:12:24;87991.60;;;17.90
74536;BMP180;63013;51.104;-115.370;2022-12-15T12:15:42;87991.80;;;17.84
74536;BMP180;63013;51.104;-115.370;2022-12-15T12:18:24;87996.20;;;17.80
74536;BMP180;63013;51.104;-115.370;2022-12-15T12:21:07;88000.80;;;17.90
74536;BMP180;63013;51.104;-115.370;2022-12-15T12:23:51;88008.00;;;17.90
74536;BMP180;63013;51.104;-115.370;2022-12-15T12:37:43;88019.60;;;17.80
74536;BMP180;63013;51.104;-115.370;2022-12-15T12:43:10;88006.00;;;17.80
74536;BMP180;63013;51.104;-115.370;2022-12-15T12:48:54;88006.80;;;17.80
74536;BMP180;63013;51.104;-115.370;2022-12-15T12:51:33;88010.20;;;17.78
74536;BMP180;63013;51.104;-115.370;2022-12-15T12:54:01;88012.20;;;17.70
74536;BMP180;63013;51.104;-115.370;2022-12-15T12:56:46;88023.80;;;17.70
74536;BMP180;63013;51.104;-115.370;2022-12-15T13:05:35;88028.40;;;17.78
74536;BMP180;63013;51.104;-115.370;2022-12-15T13:10:44;88034.20;;;17.80
74536;BMP180;63013;51.104;-115.370;2022-12-15T13:15:49;88037.80;;;17.80
74536;BMP180;63013;51.104;-115.370;2022-12-15T13:18:26;88037.00;;;17.72
74536;BMP180;63013;51.104;-115.370;2022-12-15T13:20:56;88036.60;;;17.70
74536;BMP180;63013;51.104;-115.370;2022-12-15T13:44:39;88048.80;;;17.70
74536;BMP180;63013;51.104;-115.370;2022-12-15T13:52:40;88054.60;;;17.80
74536;BMP180;63013;51.104;-115.370;2022-12-15T13:55:21;88050.20;;;17.88
74536;BMP180;63013;51.104;-115.370;2022-12-15T13:58:06;88060.80;;;17.90
74536;BMP180;63013;51.104;-115.370;2022-12-15T14:00:53;88061.00;;;17.90
74536;BMP180;63013;51.104;-115.370;2022-12-15T14:03:21;88065.40;;;18.00
74536;BMP180;63013;51.104;-115.370;2022-12-15T14:05:55;88065.80;;;18.00
74536;BMP180;63013;51.104;-115.370;2022-12-15T14:08:25;88061.80;;;18.00
74536;BMP180;63013;51.104;-115.370;2022-12-15T14:10:59;88062.80;;;18.10
74536;BMP180;63013;51.104;-115.370;2022-12-15T14:13:36;88060.00;;;18.10
74536;BMP180;63013;51.104;-115.370;2022-12-15T14:16:22;88057.40;;;18.10
74536;BMP180;63013;51.104;-115.370;2022-12-15T14:19:16;88055.80;;;18.20
74536;BMP180;63013;51.104;-115.370;2022-12-15T14:21:57;88051.60;;;18.20
74536;BMP180;63013;51.104;-115.370;2022-12-15T14:24:31;88045.60;;;18.22
74536;BMP180;63013;51.104;-115.370;2022-12-15T14:26:58;88044.00;;;18.30
74536;BMP180;63013;51.104;-115.370;2022-12-15T14:29:26;88045.80;;;18.30
74536;BMP180;63013;51.104;-115.370;2022-12-15T14:31:57;88044.80;;;18.40
74536;BMP180;63013;51.104;-115.370;2022-12-15T14:34:40;88048.20;;;18.40
74536;BMP180;63013;51.104;-115.370;2022-12-15T14:37:17;88049.60;;;18.40
74536;BMP180;63013;51.104;-115.370;2022-12-15T14:39:48;88049.60;;;18.50
74536;BMP180;63013;51.104;-115.370;2022-12-15T14:42:24;88054.20;;;18.54
74536;BMP180;63013;51.104;-115.370;2022-12-15T14:44:52;88050.60;;;18.60
74536;BMP180;63013;51.104;-115.370;2022-12-15T14:47:27;88051.00;;;18.70
74536;BMP180;63013;51.104;-115.370;2022-12-15T14:49:57;88059.20;;;18.76
74536;BMP180;63013;51.104;-115.370;2022-12-15T14:52:38;88062.80;;;18.80
74536;BMP180;63013;51.104;-115.370;2022-12-15T14:55:37;88062.20;;;18.90
74536;BMP180;63013;51.104;-115.370;2022-12-15T14:58:34;88070.00;;;18.90
74536;BMP180;63013;51.104;-115.370;2022-12-15T15:01:03;88072.40;;;19.00
74536;BMP180;63013;51.104;-115.370;2022-12-15T15:03:39;88082.80;;;19.00
74536;BMP180;63013;51.104;-115.370;2022-12-15T15:08:49;88088.80;;;19.10
74536;BMP180;63013;51.104;-115.370;2022-12-15T15:11:40;88090.60;;;19.20
74536;BMP180;63013;51.104;-115.370;2022-12-15T15:14:29;88088.20;;;19.26
74536;BMP180;63013;51.104;-115.370;2022-12-15T15:18:05;88085.40;;;19.30
74536;BMP180;63013;51.104;-115.370;2022-12-15T15:20:28;88082.00;;;19.40
74536;BMP180;63013;51.104;-115.370;2022-12-15T15:23:16;88075.60;;;19.50
74536;BMP180;63013;51.104;-115.370;2022-12-15T15:25:55;88074.00;;;19.60
74536;BMP180;63013;51.104;-115.370;2022-12-15T15:28:34;88063.60;;;19.62
74536;BMP180;63013;51.104;-115.370;2022-12-15T15:31:25;88060.40;;;19.70
74536;BMP180;63013;51.104;-115.370;2022-12-15T15:33:55;88068.20;;;19.76
74536;BMP180;63013;51.104;-115.370;2022-12-15T15:36:32;88068.20;;;19.80
74536;BMP180;63013;51.104;-115.370;2022-12-15T15:39:01;88079.20;;;19.80
74536;BMP180;63013;51.104;-115.370;2022-12-15T15:41:32;88075.60;;;19.90
74536;BMP180;63013;51.104;-115.370;2022-12-15T15:44:01;88076.40;;;20.00
74536;BMP180;63013;51.104;-115.370;2022-12-15T15:46:33;88079.20;;;20.08
74536;BMP180;63013;51.104;-115.370;2022-12-15T15:49:12;88086.00;;;20.12
74536;BMP180;63013;51.104;-115.370;2022-12-15T15:51:42;88081.40;;;20.20
74536;BMP180;63013;51.104;-115.370;2022-12-15T15:54:22;88083.20;;;20.30
74536;BMP180;63013;51.104;-115.370;2022-12-15T15:56:49;88076.40;;;20.40
74536;BMP180;63013;51.104;-115.370;2022-12-15T15:59:19;88076.40;;;20.46
74536;BMP180;63013;51.104;-115.370;2022-12-15T16:01:53;88087.40;;;20.50
74536;BMP180;63013;51.104;-115.370;2022-12-15T16:04:25;88090.40;;;20.60
74536;BMP180;63013;51.104;-115.370;2022-12-15T16:06:52;88089.40;;;20.68
74536;BMP180;63013;51.104;-115.370;2022-12-15T16:09:20;88091.60;;;20.70